Time;durP1;ratioP1;P1;durP2;ratioP2;P2;SDS_P1;SDS_P2;PMS_P1;PMS_P2;Temp;Humidity;BMP_temperature;BMP_pressure;BME280_temperature;BME280_humidity;BME280_pressure;Samples;Min_cycle;Max_cycle;Signal;HPM_P1;HPM_P2
2020/12/22 00:02:16;;;;;;;1999.90;999.90;;;14.10;99.90;;;;;;5011926;28;20166;-62
2020/12/22 00:04:41;;;;;;;1999.90;999.90;;;14.20;99.90;;;;;;5011766;28;20639;-63
2020/12/22 00:07:07;;;;;;;1999.90;999.90;;;14.20;99.90;;;;;;5011799;28;20692;-61
2020/12/22 00:09:33;;;;;;;1999.90;999.90;;;14.20;99.90;;;;;;5011821;28;20200;-63
2020/12/22 00:11:58;;;;;;;1999.90;999.90;;;14.20;99.90;;;;;;5011740;28;20261;-63
2020/12/22 00:14:24;;;;;;;1999.90;999.90;;;14.20;99.90;;;;;;5011839;28;20276;-62
2020/12/22 00:16:49;;;;;;;1999.90;999.90;;;14.20;99.90;;;;;;5012021;28;20172;-63
2020/12/22 00:19:15;;;;;;;1999.90;999.90;;;14.20;99.90;;;;;;5011787;28;20196;-63
2020/12/22 00:21:41;;;;;;;1999.90;999.90;;;14.20;99.90;;;;;;5011593;28;20200;-63
2020/12/22 00:24:06;;;;;;;1999.90;999.90;;;14.30;99.90;;;;;;5011522;28;20207;-62
2020/12/22 00:26:32;;;;;;;1999.90;999.90;;;14.30;99.90;;;;;;5011612;28;20177;-63
2020/12/22 00:28:58;;;;;;;1999.90;999.90;;;14.30;99.90;;;;;;5011251;28;20656;-63
2020/12/22 00:31:23;;;;;;;1999.90;999.90;;;14.30;99.90;;;;;;5011552;28;20639;-63
2020/12/22 00:33:49;;;;;;;1999.90;999.90;;;14.30;99.90;;;;;;5011582;28;20436;-62
2020/12/22 00:36:15;;;;;;;1999.90;999.90;;;14.40;99.90;;;;;;5011338;28;20180;-61
2020/12/22 00:38:43;;;;;;;1999.90;999.90;;;14.40;99.90;;;;;;5011393;28;20258;-61
2020/12/22 00:41:12;;;;;;;1999.90;999.90;;;14.40;99.90;;;;;;5011556;28;20170;-61
2020/12/22 00:43:40;;;;;;;1999.90;999.90;;;14.50;99.90;;;;;;5011632;28;20423;-63
2020/12/22 00:46:05;;;;;;;1999.90;999.90;;;14.50;99.90;;;;;;5011529;28;20414;-63
2020/12/22 00:48:31;;;;;;;1999.90;999.90;;;14.50;99.90;;;;;;5011178;28;20513;-62
2020/12/22 00:50:56;;;;;;;1999.90;999.90;;;14.50;99.90;;;;;;5011824;28;20185;-63
2020/12/22 00:53:22;;;;;;;1999.90;999.90;;;14.50;99.90;;;;;;5011525;28;20281;-63
2020/12/22 00:55:47;;;;;;;1999.90;999.90;;;14.50;99.90;;;;;;5011342;28;20169;-63
2020/12/22 00:58:13;;;;;;;1999.90;999.90;;;14.50;99.90;;;;;;5010806;28;20245;-62
2020/12/22 01:00:39;;;;;;;1999.90;999.90;;;14.50;99.90;;;;;;5011013;28;20745;-63
2020/12/22 01:03:06;;;;;;;1999.90;999.90;;;14.50;99.90;;;;;;5010920;28;20203;-62
2020/12/22 01:05:31;;;;;;;1999.90;999.90;;;14.60;99.90;;;;;;5014632;28;20432;-62
2020/12/22 01:07:57;;;;;;;1999.90;999.90;;;14.60;99.90;;;;;;5014816;28;21153;-63
2020/12/22 01:10:22;;;;;;;1999.90;999.90;;;14.70;99.90;;;;;;5014468;28;20762;-63
2020/12/22 01:12:49;;;;;;;1999.90;999.90;;;14.70;99.90;;;;;;5014844;28;20171;-62
2020/12/22 01:15:15;;;;;;;1999.90;999.90;;;14.70;99.90;;;;;;5014748;28;20201;-63
2020/12/22 01:17:40;;;;;;;1999.90;999.90;;;14.70;99.90;;;;;;5014581;28;20874;-63
2020/12/22 01:20:06;;;;;;;1999.90;999.90;;;14.60;99.90;;;;;;5014275;28;20176;-63
2020/12/22 01:22:32;;;;;;;1999.90;999.90;;;14.70;99.90;;;;;;5014602;28;20183;-63
2020/12/22 01:24:57;;;;;;;1999.90;999.90;;;14.60;99.90;;;;;;5014429;28;20648;-63
2020/12/22 01:27:23;;;;;;;1999.90;999.90;;;14.60;99.90;;;;;;5014488;28;20181;-62
2020/12/22 01:29:48;;;;;;;1999.90;999.90;;;14.60;99.90;;;;;;5014078;28;20657;-62
2020/12/22 01:32:14;;;;;;;1999.90;999.90;;;14.50;99.90;;;;;;5014392;28;20177;-62
2020/12/22 01:34:39;;;;;;;1999.90;999.90;;;14.50;99.90;;;;;;5014204;28;20189;-63
2020/12/22 01:37:11;;;;;;;1999.90;999.90;;;14.60;99.90;;;;;;5014222;28;20207;-63
2020/12/22 01:39:36;;;;;;;1999.90;999.90;;;14.60;99.90;;;;;;5013976;28;20179;-62
2020/12/22 01:42:09;;;;;;;1999.90;999.90;;;14.60;99.90;;;;;;5014183;28;20886;-63
2020/12/22 01:44:35;;;;;;;1999.90;999.90;;;14.50;99.90;;;;;;5014208;28;20205;-62
2020/12/22 01:47:01;;;;;;;1999.90;999.90;;;14.50;99.90;;;;;;5014083;28;20961;-62
2020/12/22 01:49:28;;;;;;;1999.90;999.90;;;14.50;99.90;;;;;;5013712;28;20208;-61
2020/12/22 01:51:56;;;;;;;1999.90;999.90;;;14.40;99.90;;;;;;5014220;28;20602;-63
2020/12/22 01:54:25;;;;;;;1999.90;999.90;;;14.40;99.90;;;;;;5013922;28;20997;-63
2020/12/22 01:56:51;;;;;;;1999.90;999.90;;;14.40;99.90;;;;;;5014028;28;20419;-62
2020/12/22 01:59:19;;;;;;;1999.90;999.90;;;14.40;99.90;;;;;;5013644;28;20409;-61
2020/12/22 02:01:45;;;;;;;1999.90;999.90;;;14.30;99.90;;;;;;5013957;28;20410;-62
2020/12/22 02:04:12;;;;;;;1999.90;999.90;;;14.20;99.90;;;;;;5013678;28;20817;-63
2020/12/22 02:06:38;;;;;;;1999.90;999.90;;;14.20;99.90;;;;;;5014021;28;20889;-61
2020/12/22 02:09:09;;;;;;;1999.90;999.90;;;14.20;99.90;;;;;;5013614;28;20454;-62
2020/12/22 02:11:38;;;;;;;1999.90;999.90;;;14.20;99.90;;;;;;5014039;28;20415;-62
2020/12/22 02:14:04;;;;;;;1999.90;999.90;;;14.20;99.90;;;;;;5013810;28;20436;-60
2020/12/22 02:16:30;;;;;;;1999.90;999.90;;;14.20;99.90;;;;;;5013706;28;20409;-61
2020/12/22 02:18:56;;;;;;;1999.90;999.90;;;14.20;99.90;;;;;;5013713;28;21135;-62
2020/12/22 02:21:23;;;;;;;1999.90;999.90;;;14.30;99.90;;;;;;5013910;28;20408;-62
2020/12/22 02:23:49;;;;;;;1999.90;999.90;;;14.30;99.90;;;;;;5013877;28;20433;-61
2020/12/22 02:26:22;;;;;;;1999.90;999.90;;;14.20;99.90;;;;;;5014269;28;20988;-62
2020/12/22 02:28:49;;;;;;;1999.90;999.90;;;14.20;99.90;;;;;;5013223;28;20476;-62
2020/12/22 02:31:15;;;;;;;1999.90;999.90;;;14.20;99.90;;;;;;5013527;28;20792;-62
2020/12/22 02:33:40;;;;;;;1999.90;999.90;;;14.10;99.90;;;;;;5013424;28;20495;-62
2020/12/22 02:36:10;;;;;;;1999.90;999.90;;;14.10;99.90;;;;;;5013616;28;20605;-61
2020/12/22 02:38:36;;;;;;;1999.90;999.90;;;14.20;99.90;;;;;;5013540;28;20550;-62
2020/12/22 02:41:02;;;;;;;1999.90;999.90;;;14.20;99.90;;;;;;5013584;28;20409;-62
2020/12/22 02:43:27;;;;;;;1999.90;999.90;;;14.20;99.90;;;;;;5013159;28;20216;-62
2020/12/22 02:45:53;;;;;;;1999.90;999.90;;;14.20;99.90;;;;;;5013607;28;20408;-62
2020/12/22 02:48:18;;;;;;;1999.90;999.90;;;14.10;99.90;;;;;;5013024;28;20631;-61
2020/12/22 02:50:44;;;;;;;1999.90;999.90;;;14.10;99.90;;;;;;5013112;28;20263;-62
2020/12/22 02:53:10;;;;;;;1999.90;999.90;;;14.00;99.90;;;;;;5013173;28;20180;-61
2020/12/22 02:55:36;;;;;;;1999.90;999.90;;;13.90;99.90;;;;;;5013411;28;20470;-62
2020/12/22 02:58:01;;;;;;;1999.90;999.90;;;13.90;99.90;;;;;;5013490;28;20251;-62
2020/12/22 03:00:27;;;;;;;1999.90;999.90;;;13.90;99.90;;;;;;5013182;28;20260;-62
2020/12/22 03:02:53;;;;;;;1999.90;999.90;;;13.90;99.90;;;;;;5012935;28;20177;-62
2020/12/22 03:05:19;;;;;;;1999.90;999.90;;;13.90;99.90;;;;;;5013336;28;20539;-62
2020/12/22 03:07:45;;;;;;;1999.90;999.90;;;13.90;99.90;;;;;;5013185;28;20225;-62
2020/12/22 03:10:13;;;;;;;1999.90;999.90;;;13.80;99.90;;;;;;5012694;28;20450;-62
2020/12/22 03:12:38;;;;;;;1999.90;999.90;;;13.90;99.90;;;;;;5013016;28;20173;-61
2020/12/22 03:15:06;;;;;;;1999.90;999.90;;;13.90;99.90;;;;;;5012673;28;20456;-61
2020/12/22 03:17:32;;;;;;;1999.90;999.90;;;13.90;99.90;;;;;;5012771;28;20167;-61
2020/12/22 03:19:58;;;;;;;1999.90;999.90;;;13.90;99.90;;;;;;5012532;28;20503;-61
2020/12/22 03:22:24;;;;;;;1999.90;999.90;;;13.90;99.90;;;;;;5012520;28;20488;-61
2020/12/22 03:24:49;;;;;;;1999.90;999.90;;;13.90;99.90;;;;;;5012409;28;20197;-60
2020/12/22 03:27:15;;;;;;;1999.90;999.90;;;13.90;99.90;;;;;;5011628;28;20176;-61
2020/12/22 03:29:40;;;;;;;1999.90;999.90;;;13.90;99.90;;;;;;5012018;28;20205;-62
2020/12/22 03:32:06;;;;;;;1999.90;999.90;;;14.00;99.90;;;;;;5012511;28;20211;-61
2020/12/22 03:34:32;;;;;;;1999.90;999.90;;;14.00;99.90;;;;;;5012311;28;20283;-62
2020/12/22 03:36:58;;;;;;;1999.90;999.90;;;14.10;99.90;;;;;;5012459;28;20175;-61
2020/12/22 03:39:23;;;;;;;1999.90;999.90;;;14.10;99.90;;;;;;5012083;28;20239;-62
2020/12/22 03:41:49;;;;;;;1999.90;999.90;;;14.10;99.90;;;;;;5012609;28;20424;-61
2020/12/22 03:44:14;;;;;;;1999.90;999.90;;;14.10;99.90;;;;;;5012209;28;20202;-62
2020/12/22 03:46:43;;;;;;;1999.90;999.90;;;14.20;99.90;;;;;;5012297;28;20208;-62
2020/12/22 03:49:09;;;;;;;1999.90;999.90;;;14.20;99.90;;;;;;5012083;28;20311;-61
2020/12/22 03:51:34;;;;;;;1999.90;999.90;;;14.30;99.90;;;;;;5012158;28;20507;-62
2020/12/22 03:54:00;;;;;;;1999.90;999.90;;;14.30;99.90;;;;;;5011975;28;20189;-62
2020/12/22 03:56:26;;;;;;;1999.90;999.90;;;14.30;99.90;;;;;;5012098;28;20264;-61
2020/12/22 03:58:52;;;;;;;1999.90;999.90;;;14.30;99.90;;;;;;5011947;28;20179;-61
2020/12/22 04:01:17;;;;;;;1999.90;999.90;;;14.30;99.90;;;;;;5012005;28;20492;-62
2020/12/22 04:03:43;;;;;;;1999.90;999.90;;;14.30;99.90;;;;;;5029931;22;20887;-66
2020/12/22 04:06:08;;;;;;;1999.90;999.90;;;14.30;99.90;;;;;;5071200;28;20181;-65
2020/12/22 04:08:34;;;;;;;1999.90;999.90;;;14.30;99.90;;;;;;5070973;28;20684;-65
2020/12/22 04:11:00;;;;;;;1999.90;999.90;;;14.30;99.90;;;;;;5071188;28;20199;-66
2020/12/22 04:13:26;;;;;;;1999.90;999.90;;;14.30;99.90;;;;;;5071162;28;20429;-66
2020/12/22 04:15:52;;;;;;;1999.90;999.90;;;14.40;99.90;;;;;;5051315;28;20733;-66
2020/12/22 04:18:17;;;;;;;1999.90;999.90;;;14.30;99.90;;;;;;5050938;28;20175;-66
2020/12/22 04:20:43;;;;;;;1999.90;999.90;;;14.10;99.90;;;;;;5051034;28;20165;-66
2020/12/22 04:23:09;;;;;;;1999.90;999.90;;;14.00;99.90;;;;;;5050982;28;20163;-66
2020/12/22 04:25:35;;;;;;;1999.90;999.90;;;13.90;99.90;;;;;;5050878;28;20426;-66
2020/12/22 04:28:00;;;;;;;1999.90;999.90;;;13.80;99.90;;;;;;5051077;28;20197;-66
2020/12/22 04:30:26;;;;;;;1999.90;999.90;;;13.80;99.90;;;;;;5050721;28;20551;-66
2020/12/22 04:32:52;;;;;;;1999.90;999.90;;;13.80;99.90;;;;;;5050798;28;20324;-66
2020/12/22 04:35:17;;;;;;;1999.90;999.90;;;13.90;99.90;;;;;;5050665;28;20183;-66
2020/12/22 04:37:43;;;;;;;1999.90;999.90;;;13.90;99.90;;;;;;5050744;28;20550;-66
2020/12/22 04:40:08;;;;;;;1999.90;999.90;;;13.90;99.90;;;;;;5050441;28;20201;-66
2020/12/22 04:42:34;;;;;;;1999.90;999.90;;;14.00;99.90;;;;;;5050749;28;20176;-66
2020/12/22 04:45:01;;;;;;;1999.90;999.90;;;14.00;99.90;;;;;;5050840;28;20191;-66
2020/12/22 04:47:28;;;;;;;1999.90;999.90;;;14.00;99.90;;;;;;5050694;28;20171;-66
2020/12/22 04:50:01;;;;;;;1999.90;999.90;;;14.00;99.90;;;;;;5051980;28;20449;-66
2020/12/22 04:52:29;;;;;;;1999.90;999.90;;;14.10;99.90;;;;;;5067191;28;20434;-62
2020/12/22 04:54:55;;;;;;;1999.90;999.90;;;14.00;99.90;;;;;;5074584;28;20441;-64
2020/12/22 04:57:30;;;;;;;1999.90;999.90;;;13.90;99.90;;;;;;5076053;28;20413;-63
2020/12/22 04:59:56;;;;;;;1999.90;999.90;;;13.80;99.90;;;;;;5075277;28;20516;-64
2020/12/22 05:02:26;;;;;;;1999.90;999.90;;;13.80;99.90;;;;;;5075385;28;20426;-64
2020/12/22 05:04:51;;;;;;;1999.90;999.90;;;13.80;99.90;;;;;;5075160;28;20453;-64
2020/12/22 05:07:17;;;;;;;1999.90;999.90;;;13.80;99.90;;;;;;5074988;28;20426;-63
2020/12/22 05:09:43;;;;;;;1999.90;999.90;;;13.80;99.90;;;;;;5073819;28;20200;-65
2020/12/22 05:12:09;;;;;;;1999.90;999.90;;;13.80;99.90;;;;;;5073563;28;20152;-64
2020/12/22 05:14:35;;;;;;;1999.90;999.90;;;13.90;99.90;;;;;;5050811;28;20466;-65
2020/12/22 05:17:00;;;;;;;1999.90;999.90;;;13.90;99.90;;;;;;5050399;28;20536;-66
2020/12/22 05:19:34;;;;;;;1999.90;999.90;;;13.90;99.90;;;;;;5050183;28;20178;-65
2020/12/22 05:22:01;;;;;;;1999.90;999.90;;;13.90;99.90;;;;;;5050366;28;20191;-65
2020/12/22 05:24:28;;;;;;;1999.90;999.90;;;13.90;99.90;;;;;;5050221;28;20957;-66
2020/12/22 05:26:54;;;;;;;1999.90;999.90;;;13.80;99.90;;;;;;5050467;28;20784;-65
2020/12/22 05:29:20;;;;;;;1999.90;999.90;;;13.70;99.90;;;;;;5049959;28;20477;-65
2020/12/22 05:31:50;;;;;;;1999.90;999.90;;;13.70;99.90;;;;;;5050313;28;20493;-65
2020/12/22 05:34:18;;;;;;;1999.90;999.90;;;13.80;99.90;;;;;;5050232;28;20606;-64
2020/12/22 05:36:44;;;;;;;1999.90;999.90;;;13.80;99.90;;;;;;5050309;28;20879;-65
2020/12/22 05:39:12;;;;;;;1999.90;999.90;;;13.80;99.90;;;;;;5049890;28;20410;-65
2020/12/22 05:41:37;;;;;;;1999.90;999.90;;;13.80;99.90;;;;;;5050096;28;20416;-65
2020/12/22 05:44:04;;;;;;;1999.90;999.90;;;13.90;99.90;;;;;;5050028;28;20442;-66
2020/12/22 05:46:33;;;;;;;1999.90;999.90;;;13.90;99.90;;;;;;5050082;28;20172;-66
2020/12/22 05:49:04;;;;;;;1999.90;999.90;;;13.90;99.90;;;;;;5049729;28;20444;-66
2020/12/22 05:51:31;;;;;;;1999.90;999.90;;;13.90;99.90;;;;;;5053942;28;20413;-65
2020/12/22 05:54:04;;;;;;;1999.90;999.90;;;13.80;99.90;;;;;;5054135;28;20422;-67
2020/12/22 05:56:31;;;;;;;1999.90;999.90;;;13.80;99.90;;;;;;5058039;28;20410;-66
2020/12/22 05:58:57;;;;;;;1999.90;999.90;;;13.80;99.90;;;;;;5056444;28;20484;-65
2020/12/22 06:01:34;;;;;;;1999.90;999.90;;;13.70;99.90;;;;;;5056319;28;20410;-65
2020/12/22 06:04:02;;;;;;;1999.90;999.90;;;13.70;99.90;;;;;;5056306;28;20521;-67
2020/12/22 06:06:29;;;;;;;1999.90;999.90;;;13.70;99.90;;;;;;5057061;28;20419;-66
2020/12/22 06:08:55;;;;;;;1999.90;999.90;;;13.80;99.90;;;;;;5055898;28;20445;-65
2020/12/22 06:11:22;;;;;;;1999.90;999.90;;;13.80;99.90;;;;;;5056088;28;20415;-65
2020/12/22 06:13:51;;;;;;;1999.90;999.90;;;13.90;99.90;;;;;;5055838;28;20816;-66
2020/12/22 06:16:19;;;;;;;1999.90;999.90;;;13.90;99.90;;;;;;5055502;28;20403;-67
2020/12/22 06:18:47;;;;;;;1999.90;999.90;;;13.90;99.90;;;;;;5055907;28;20406;-65
2020/12/22 06:21:19;;;;;;;1999.90;999.90;;;13.90;99.90;;;;;;5055615;28;20411;-67
2020/12/22 06:23:50;;;;;;;1999.90;999.90;;;14.00;99.90;;;;;;5055002;28;20932;-67
2020/12/22 06:26:18;;;;;;;1999.90;999.90;;;14.00;99.90;;;;;;5055070;28;20403;-65
2020/12/22 06:28:44;;;;;;;1999.90;999.90;;;14.00;99.90;;;;;;5054487;28;20445;-66
2020/12/22 06:31:24;;;;;;;1999.90;999.90;;;14.00;99.90;;;;;;5055436;28;20417;-66
2020/12/22 06:33:53;;;;;;;1999.90;999.90;;;14.10;99.90;;;;;;5055969;28;20182;-66
2020/12/22 06:36:19;;;;;;;1999.90;999.90;;;14.10;99.90;;;;;;5057136;28;20424;-67
2020/12/22 06:38:56;;;;;;;1999.90;999.90;;;14.10;99.90;;;;;;5056793;28;20495;-65
2020/12/22 06:41:35;;;;;;;1999.90;999.90;;;14.10;99.90;;;;;;5057423;28;20417;-67
2020/12/22 06:44:12;;;;;;;1999.90;999.90;;;14.20;99.90;;;;;;5058371;28;20452;-67
2020/12/22 06:46:39;;;;;;;1999.90;999.90;;;14.30;99.90;;;;;;5057466;28;20402;-65
2020/12/22 06:49:06;;;;;;;1999.90;999.90;;;14.30;99.90;;;;;;5056717;28;20453;-65
2020/12/22 06:51:33;;;;;;;1999.90;999.90;;;14.30;99.90;;;;;;5057086;28;20403;-67
2020/12/22 06:54:00;;;;;;;1999.90;999.90;;;14.30;99.90;;;;;;5056002;28;20804;-65
2020/12/22 06:56:42;;;;;;;1999.90;999.90;;;14.30;99.90;;;;;;5057758;28;20497;-65
2020/12/22 06:59:11;;;;;;;1999.90;999.90;;;14.30;99.90;;;;;;5056580;28;20428;-66
2020/12/22 07:01:46;;;;;;;1999.90;999.90;;;14.30;99.90;;;;;;5056331;28;20410;-67
2020/12/22 07:04:13;;;;;;;1999.90;999.90;;;14.30;99.90;;;;;;5057064;28;20441;-67
2020/12/22 07:06:47;;;;;;;1999.90;999.90;;;14.20;99.90;;;;;;5056946;28;21089;-67
2020/12/22 07:09:45;;;;;;;1999.90;999.90;;;14.20;99.90;;;;;;5057001;28;20441;-67
2020/12/22 07:12:15;;;;;;;1999.90;999.90;;;14.30;99.90;;;;;;5034317;28;20449;-67
2020/12/22 07:14:48;;;;;;;1999.90;999.90;;;14.30;99.90;;;;;;5057068;28;20442;-67
2020/12/22 07:17:16;;;;;;;1999.90;999.90;;;14.30;99.90;;;;;;5055552;28;20425;-67
2020/12/22 07:19:53;;;;;;;1999.90;999.90;;;14.40;99.90;;;;;;5056112;28;20441;-67
2020/12/22 07:22:19;;;;;;;1999.90;999.90;;;14.50;99.90;;;;;;5055066;28;20446;-67
2020/12/22 07:24:45;;;;;;;1999.90;999.90;;;14.60;99.90;;;;;;5055653;28;20800;-66
2020/12/22 07:27:11;;;;;;;1999.90;999.90;;;14.60;99.90;;;;;;5055318;28;20407;-65
2020/12/22 07:29:38;;;;;;;1999.90;999.90;;;14.60;99.90;;;;;;5056468;28;20206;-66
2020/12/22 07:32:04;;;;;;;1999.90;999.90;;;14.50;99.90;;;;;;5055591;28;20416;-67
2020/12/22 07:34:32;;;;;;;1999.90;999.90;;;14.50;99.90;;;;;;5056431;28;20430;-67
2020/12/22 07:37:05;;;;;;;1999.90;999.90;;;14.60;99.90;;;;;;5052385;28;20402;-65
2020/12/22 07:39:32;;;;;;;1999.90;999.90;;;14.60;99.90;;;;;;5051326;28;20422;-66
2020/12/22 07:42:14;;;;;;;1999.90;999.90;;;14.60;99.90;;;;;;5051826;28;20421;-66
2020/12/22 07:44:41;;;;;;;1999.90;999.90;;;14.60;99.90;;;;;;5051610;28;20437;-66
2020/12/22 07:47:08;;;;;;;1999.90;999.90;;;14.60;99.90;;;;;;5051572;28;20488;-65
2020/12/22 07:49:34;;;;;;;1999.90;999.90;;;14.60;99.90;;;;;;5051196;28;20458;-65
2020/12/22 07:52:00;;;;;;;1999.90;999.90;;;14.60;99.90;;;;;;5051693;28;20412;-66
2020/12/22 07:54:26;;;;;;;1999.90;999.90;;;14.60;99.90;;;;;;5051345;28;20517;-66
2020/12/22 07:56:55;;;;;;;1999.90;999.90;;;14.60;99.90;;;;;;5051282;28;20174;-65
2020/12/22 07:59:21;;;;;;;1999.90;999.90;;;14.50;99.90;;;;;;5051032;28;20168;-66
2020/12/22 08:01:48;;;;;;;1999.90;999.90;;;14.50;99.90;;;;;;5051230;28;20417;-65
2020/12/22 08:04:25;;;;;;;1999.90;999.90;;;14.50;99.90;;;;;;5051226;28;20207;-66
2020/12/22 08:06:58;;;;;;;1999.90;999.90;;;14.40;99.90;;;;;;5051510;28;20424;-65
2020/12/22 08:09:31;;;;;;;1999.90;999.90;;;14.40;99.90;;;;;;5051074;28;20493;-66
2020/12/22 08:12:08;;;;;;;1999.90;999.90;;;14.40;99.90;;;;;;5050929;28;20482;-66
2020/12/22 08:14:42;;;;;;;1999.90;999.90;;;14.40;99.90;;;;;;5050876;28;20436;-65
2020/12/22 08:17:20;;;;;;;1999.90;999.90;;;14.50;99.90;;;;;;5051259;28;20497;-66
2020/12/22 08:19:47;;;;;;;1999.90;999.90;;;14.50;99.90;;;;;;5050834;28;20404;-65
2020/12/22 08:22:14;;;;;;;1999.90;999.90;;;14.50;99.90;;;;;;5050926;28;20924;-66
2020/12/22 08:24:40;;;;;;;1999.90;999.90;;;14.60;99.90;;;;;;5050810;28;20512;-66
2020/12/22 08:27:07;;;;;;;1999.90;999.90;;;14.70;99.90;;;;;;5050754;28;20454;-66
2020/12/22 08:29:34;;;;;;;1999.90;999.90;;;14.70;99.90;;;;;;5050642;28;20542;-65
2020/12/22 08:32:01;;;;;;;1999.90;999.90;;;14.80;99.90;;;;;;5050837;28;20410;-65
2020/12/22 08:34:27;;;;;;;1999.90;999.90;;;14.80;99.90;;;;;;5053670;28;20973;-67
2020/12/22 08:36:53;;;;;;;1999.90;999.90;;;14.80;99.90;;;;;;5056016;28;20518;-65
2020/12/22 08:39:24;;;;;;;1999.90;999.90;;;14.80;99.90;;;;;;5055413;28;20423;-68
2020/12/22 08:41:57;;;;;;;1999.90;999.90;;;14.80;99.90;;;;;;5053743;28;20981;-65
2020/12/22 08:44:25;;;;;;;1999.90;999.90;;;14.80;99.90;;;;;;5050676;28;20433;-66
2020/12/22 08:46:51;;;;;;;1999.90;999.90;;;14.80;99.90;;;;;;5050790;28;20417;-65
2020/12/22 08:49:24;;;;;;;1999.90;999.90;;;14.70;99.90;;;;;;5050272;28;20446;-66
2020/12/22 08:51:51;;;;;;;1999.90;999.90;;;14.80;99.90;;;;;;5050826;28;21078;-65
2020/12/22 08:54:16;;;;;;;1999.90;999.90;;;14.80;99.90;;;;;;5050776;28;20508;-69
2020/12/22 08:56:42;;;;;;;1999.90;999.90;;;14.70;99.90;;;;;;5050746;28;20791;-65
2020/12/22 08:59:10;;;;;;;1999.90;999.90;;;14.70;99.90;;;;;;5050822;28;20249;-66
2020/12/22 09:01:43;;;;;;;1999.90;999.90;;;14.70;99.90;;;;;;5050615;28;20612;-65
2020/12/22 09:04:10;;;;;;;1999.90;999.90;;;14.70;99.90;;;;;;5050371;28;20445;-67
2020/12/22 09:06:38;;;;;;;1999.90;999.90;;;14.60;99.90;;;;;;5050515;28;20429;-65
2020/12/22 09:09:06;;;;;;;1999.90;999.90;;;14.60;99.90;;;;;;5050141;28;20452;-65
2020/12/22 09:11:32;;;;;;;1999.90;999.90;;;14.70;99.90;;;;;;5050570;28;20478;-65
2020/12/22 09:14:10;;;;;;;1999.90;999.90;;;14.70;99.90;;;;;;5050358;28;20428;-65
2020/12/22 09:16:56;;;;;;;1999.90;999.90;;;14.70;99.90;;;;;;5050541;28;20413;-65
2020/12/22 09:19:29;;;;;;;1999.90;999.90;;;14.70;99.90;;;;;;5050113;28;20452;-65
2020/12/22 09:21:59;;;;;;;1999.90;999.90;;;14.70;99.90;;;;;;5050676;28;20406;-65
2020/12/22 09:24:25;;;;;;;1999.90;999.90;;;14.70;99.90;;;;;;5050892;28;20430;-66
2020/12/22 09:27:10;;;;;;;1999.90;999.90;;;14.80;99.90;;;;;;5054311;28;20433;-66
2020/12/22 09:29:38;;;;;;;1999.90;999.90;;;14.70;99.90;;;;;;5052526;28;20968;-66
2020/12/22 09:32:05;;;;;;;1999.90;999.90;;;14.80;99.90;;;;;;5054053;28;20474;-66
2020/12/22 09:34:32;;;;;;;1999.90;999.90;;;14.80;99.90;;;;;;5053910;28;20797;-67
2020/12/22 09:37:01;;;;;;;1999.90;999.90;;;14.80;99.90;;;;;;5053971;28;20745;-65
2020/12/22 09:39:28;;;;;;;1999.90;999.90;;;14.80;99.90;;;;;;5053640;28;20406;-65
2020/12/22 09:41:55;;;;;;;1999.90;999.90;;;14.90;99.90;;;;;;5053946;28;20422;-66
2020/12/22 09:44:20;;;;;;;1999.90;999.90;;;14.90;99.90;;;;;;5053635;28;20472;-65
2020/12/22 09:46:48;;;;;;;1999.90;999.90;;;15.00;99.90;;;;;;5053796;28;20416;-65
2020/12/22 09:49:13;;;;;;;1999.90;999.90;;;15.00;99.90;;;;;;5053508;28;20704;-66
2020/12/22 09:51:39;;;;;;;1999.90;999.90;;;14.90;99.90;;;;;;5053705;28;20475;-65
2020/12/22 09:54:05;;;;;;;1999.90;999.90;;;14.90;99.90;;;;;;5053614;28;20233;-67
2020/12/22 09:56:31;;;;;;;1999.90;999.90;;;14.90;99.90;;;;;;5053494;28;20209;-66
2020/12/22 09:58:58;;;;;;;1999.90;999.90;;;14.90;99.90;;;;;;5048546;28;20425;-65
2020/12/22 10:01:25;;;;;;;1999.90;999.90;;;14.80;99.90;;;;;;5033046;28;20413;-66
2020/12/22 10:03:54;;;;;;;1999.90;999.90;;;14.80;99.90;;;;;;5035966;28;20508;-68
2020/12/22 10:06:22;;;;;;;1999.90;999.90;;;14.80;99.90;;;;;;5032684;28;20510;-65
2020/12/22 10:08:49;;;;;;;1999.90;999.90;;;14.80;99.90;;;;;;5032307;28;20445;-65
2020/12/22 10:11:15;;;;;;;1999.90;999.90;;;14.90;99.90;;;;;;5032547;28;20446;-66
2020/12/22 10:13:41;;;;;;;1999.90;999.90;;;14.90;99.90;;;;;;5032508;28;20415;-66
2020/12/22 10:16:08;;;;;;;1999.90;999.90;;;14.90;99.90;;;;;;5032443;28;20405;-65
2020/12/22 10:18:34;;;;;;;1999.90;999.90;;;14.90;99.90;;;;;;5032387;28;20796;-65
2020/12/22 10:21:08;;;;;;;1999.90;999.90;;;14.90;99.90;;;;;;5032629;28;20410;-63
2020/12/22 10:23:35;;;;;;;1999.90;999.90;;;14.90;99.90;;;;;;5032292;28;20168;-63
2020/12/22 10:26:03;;;;;;;1999.90;999.90;;;14.90;99.90;;;;;;5032225;28;20407;-64
2020/12/22 10:28:29;;;;;;;1999.90;999.90;;;14.90;99.90;;;;;;5032210;28;20399;-64
2020/12/22 10:30:55;;;;;;;1999.90;999.90;;;14.80;99.90;;;;;;5027769;28;20418;-63
2020/12/22 10:33:20;;;;;;;1999.90;999.90;;;14.70;99.90;;;;;;5030784;28;20407;-64
2020/12/22 10:35:46;;;;;;;1999.90;999.90;;;14.80;99.90;;;;;;5031201;28;20869;-64
2020/12/22 10:38:12;;;;;;;1999.90;999.90;;;14.70;99.90;;;;;;5030737;28;20636;-64
2020/12/22 10:40:37;;;;;;;1999.90;999.90;;;14.60;99.90;;;;;;5031691;28;20168;-65
2020/12/22 10:43:03;;;;;;;1999.90;999.90;;;14.60;99.90;;;;;;5031350;28;20215;-64
2020/12/22 10:45:29;;;;;;;1999.90;999.90;;;14.60;99.90;;;;;;5030500;28;20431;-66
2020/12/22 10:47:55;;;;;;;1999.90;999.90;;;14.70;99.90;;;;;;5031297;28;20165;-64
2020/12/22 10:50:21;;;;;;;1999.90;999.90;;;14.80;99.90;;;;;;5030503;28;20200;-65
2020/12/22 10:52:47;;;;;;;1999.90;999.90;;;14.90;99.90;;;;;;5030619;28;20403;-66
2020/12/22 10:55:12;;;;;;;1999.90;999.90;;;15.00;99.90;;;;;;5031168;28;20437;-65
2020/12/22 10:57:38;;;;;;;1999.90;999.90;;;14.90;99.90;;;;;;5031211;28;20161;-65
2020/12/22 11:00:07;;;;;;;1999.90;999.90;;;14.80;99.90;;;;;;5030061;28;20165;-65
2020/12/22 11:02:33;;;;;;;1999.90;999.90;;;14.80;99.90;;;;;;5030963;28;20169;-64
2020/12/22 11:04:59;;;;;;;1999.90;999.90;;;14.70;99.90;;;;;;5030849;28;20457;-65
2020/12/22 11:09:51;;;;;;;1999.90;999.90;;;14.70;99.90;;;;;;5030637;28;20499;-64
2020/12/22 11:12:16;;;;;;;1999.90;999.90;;;14.70;99.90;;;;;;5030059;28;20165;-63
2020/12/22 11:14:42;;;;;;;1999.90;999.90;;;14.60;99.90;;;;;;5030077;28;20421;-64
2020/12/22 11:17:08;;;;;;;1999.90;999.90;;;14.60;99.90;;;;;;5030618;28;20166;-64
2020/12/22 11:19:33;;;;;;;1999.90;999.90;;;14.50;99.90;;;;;;5030379;28;20204;-66
2020/12/22 11:21:59;;;;;;;1999.90;999.90;;;14.40;99.90;;;;;;5029798;28;20196;-65
2020/12/22 11:24:24;;;;;;;1999.90;999.90;;;14.20;99.90;;;;;;5030288;28;20227;-66
2020/12/22 11:26:50;;;;;;;1999.90;999.90;;;14.00;99.90;;;;;;5030457;28;20638;-65
2020/12/22 11:29:15;;;;;;;1999.90;999.90;;;13.90;99.90;;;;;;5029642;28;20208;-67
2020/12/22 11:31:41;;;;;;;1999.90;999.90;;;13.90;99.90;;;;;;5030099;28;20264;-65
2020/12/22 11:34:07;;;;;;;1999.90;999.90;;;13.80;99.90;;;;;;5030162;28;20228;-67
2020/12/22 11:36:32;;;;;;;1999.90;999.90;;;13.80;99.90;;;;;;5029721;28;20169;-66
2020/12/22 11:38:58;;;;;;;1999.90;999.90;;;13.80;99.90;;;;;;5029498;28;20230;-67
2020/12/22 11:41:24;;;;;;;1999.90;999.90;;;13.90;99.90;;;;;;5029837;28;20178;-65
2020/12/22 11:43:50;;;;;;;1999.90;999.90;;;14.00;99.90;;;;;;5029669;28;20219;-66
2020/12/22 11:46:16;;;;;;;1999.90;999.90;;;13.90;99.90;;;;;;5030163;28;20417;-66
2020/12/22 11:48:42;;;;;;;1999.90;999.90;;;13.70;99.90;;;;;;5029171;28;20415;-65
2020/12/22 11:51:08;;;;;;;1999.90;999.90;;;13.60;99.90;;;;;;5029087;28;20473;-65
2020/12/22 11:53:34;;;;;;;1999.90;999.90;;;13.50;99.90;;;;;;5029677;28;20406;-65
2020/12/22 11:56:00;;;;;;;1999.90;999.90;;;13.50;99.90;;;;;;5030060;28;20821;-65
2020/12/22 11:58:25;;;;;;;1999.90;999.90;;;13.60;99.90;;;;;;5028157;28;20417;-65
2020/12/22 12:00:51;;;;;;;1999.90;999.90;;;13.70;99.90;;;;;;5025207;28;20307;-65
2020/12/22 12:03:16;;;;;;;1999.90;999.90;;;13.70;99.90;;;;;;5025321;28;20191;-65